Time;durP1;ratioP1;P1;durP2;ratioP2;P2;SDS_P1;SDS_P2;PMS_P1;PMS_P2;Temp;Humidity;BMP_temperature;BMP_pressure;BME280_temperature;BME280_humidity;BME280_pressure;Samples;Min_cycle;Max_cycle;Signal;HPM_P1;HPM_P2
2021/10/28 00:20:34;;;;;;;;;27.75;25.50;;;;;14.45;64.75;101164.41;5052429;28;45704;-81
2021/10/28 00:23:03;;;;;;;;;19.00;19.00;;;;;14.44;64.50;101163.56;5035612;28;45700;-81
2021/10/28 00:25:28;;;;;;;;;22.25;21.75;;;;;14.45;64.74;101167.03;5052543;28;45744;-80
2021/10/28 00:27:54;;;;;;;;;18.25;16.25;;;;;14.25;64.45;101129.03;5052479;28;45950;-80
2021/10/28 00:33:44;;;;;;;;;14.25;13.25;;;;;14.38;64.78;101148.22;5052067;28;45911;-80
2021/10/28 00:36:10;;;;;;;;;16.50;15.75;;;;;14.37;64.70;101148.31;5052296;28;46366;-81
2021/10/28 00:38:35;;;;;;;;;13.50;13.50;;;;;14.34;64.53;101136.22;5052095;28;45679;-80
2021/10/28 00:41:02;;;;;;;;;19.75;17.50;;;;;14.21;64.44;101115.22;5054763;28;45950;-80
2021/10/28 00:43:29;;;;;;;;;17.25;15.00;;;;;14.26;64.58;101120.13;5059866;28;45563;-80
2021/10/28 00:49:16;;;;;;;;;14.50;13.50;;;;;14.27;64.82;101127.94;5059303;28;46010;-80
2021/10/28 00:51:42;;;;;;;;;18.25;15.75;;;;;14.27;64.71;101127.94;5077921;28;45717;-80
2021/10/28 00:54:12;;;;;;;;;18.00;16.75;;;;;14.27;64.89;101138.47;5064999;28;45635;-81
2021/10/28 00:56:41;;;;;;;;;17.25;15.00;;;;;14.21;64.86;101128.41;5078282;28;46437;-79
2021/10/28 00:59:11;;;;;;;;;14.25;14.00;;;;;14.24;65.27;101130.81;5059557;28;47097;-81
2021/10/28 01:01:37;;;;;;;;;14.50;13.00;;;;;13.82;65.00;101065.63;5077793;28;45715;-81
2021/10/28 01:04:03;;;;;;;;;16.50;14.50;;;;;13.82;65.32;101057.72;5078170;28;45674;-79
2021/10/28 01:06:30;;;;;;;;;15.50;14.00;;;;;14.21;64.89;101124.94;5077138;28;45581;-80
2021/10/28 01:08:59;;;;;;;;;15.25;14.75;;;;;13.95;64.96;101079.53;5077935;28;46118;-80
2021/10/28 01:11:27;;;;;;;;;14.00;12.00;;;;;14.04;65.06;101093.78;5077587;28;45677;-81
2021/10/28 01:13:56;;;;;;;;;19.75;15.00;;;;;13.97;65.12;101082.06;5077878;28;45617;-81
2021/10/28 01:16:22;;;;;;;;;14.75;14.00;;;;;13.84;65.13;101074.25;5077347;28;46392;-82
2021/10/28 01:18:50;;;;;;;;;11.25;10.00;;;;;14.07;65.16;101115.47;5076751;28;46019;-81
2021/10/28 01:21:21;;;;;;;;;14.00;13.50;;;;;13.72;64.85;101056.75;5077604;28;45664;-81
2021/10/28 01:23:50;;;;;;;;;14.00;11.25;;;;;13.72;65.39;101056.75;5059373;28;45998;-82
2021/10/28 01:26:19;;;;;;;;;12.50;12.50;;;;;13.52;65.02;101024.06;5058514;28;47234;-80
2021/10/28 01:35:16;;;;;;;;;14.25;13.00;;;;;13.78;65.33;101064.19;5077311;28;45638;-81
2021/10/28 01:37:44;;;;;;;;;11.75;11.25;;;;;13.90;65.18;101094.84;5077095;28;47001;-80
2021/10/28 01:40:10;;;;;;;;;12.00;12.00;;;;;13.88;65.52;101087.06;5058646;28;47239;-80
2021/10/28 01:42:39;;;;;;;;;13.50;12.25;;;;;13.78;65.09;101069.47;5077276;28;45700;-80
2021/10/28 01:45:05;;;;;;;;;12.50;11.25;;;;;13.78;65.44;101074.72;5077247;28;45690;-81
2021/10/28 01:47:31;;;;;;;;;14.50;13.00;;;;;13.82;65.26;101081.44;5076719;28;47675;-80
2021/10/28 01:49:57;;;;;;;;;17.00;15.75;;;;;13.78;65.16;101083.47;5075900;28;45670;-80
2021/10/28 01:52:22;;;;;;;;;21.25;18.50;;;;;13.77;65.53;101089.69;5077163;28;45969;-81
2021/10/28 01:54:47;;;;;;;;;18.25;16.25;;;;;13.63;65.27;101058.31;5077206;28;45519;-81
2021/10/28 01:57:18;;;;;;;;;13.50;12.00;;;;;13.72;65.34;101083.94;5076894;28;45524;-79
2021/10/28 01:59:44;;;;;;;;;14.00;12.50;;;;;13.63;65.57;101062.75;5076745;28;45514;-80
2021/10/28 02:02:09;;;;;;;;;16.75;16.00;;;;;13.58;65.45;101055.19;5076643;28;45510;-79
2021/10/28 02:04:35;;;;;;;;;11.50;10.50;;;;;13.68;65.18;101068.50;5077375;28;45637;-80
2021/10/28 02:07:01;;;;;;;;;14.00;13.50;;;;;13.43;65.31;101036.16;5076387;28;45845;-80
2021/10/28 02:09:27;;;;;;;;;13.25;12.00;;;;;13.50;65.27;101044.41;5076731;28;46229;-80
2021/10/28 02:12:00;;;;;;;;;13.00;12.50;;;;;13.37;65.36;101027.88;5076813;28;45636;-81
2021/10/28 02:17:22;;;;;;;;;14.50;14.00;;;;;13.55;65.64;101059.88;5076262;28;46683;-81
2021/10/28 02:19:51;;;;;;;;;15.75;13.00;;;;;13.52;65.63;101060.09;5076437;28;45632;-80
2021/10/28 02:22:19;;;;;;;;;11.50;11.50;;;;;13.44;65.73;101029.91;5076408;28;45783;-81
2021/10/28 02:24:44;;;;;;;;;12.75;11.50;;;;;13.16;65.81;100983.00;5058043;28;45846;-79
2021/10/28 02:27:11;;;;;;;;;13.00;13.00;;;;;13.37;65.93;101030.50;5054111;28;46338;-79
2021/10/28 02:29:42;;;;;;;;;14.00;11.00;;;;;13.02;65.69;100973.47;5072450;28;46119;-82
2021/10/28 02:32:11;;;;;;;;;12.75;11.00;;;;;12.91;65.78;100954.19;5074900;28;45743;-81
2021/10/28 02:34:37;;;;;;;;;18.50;14.75;;;;;13.18;65.70;100988.13;5076763;28;45738;-81
2021/10/28 02:37:05;;;;;;;;;12.75;11.75;;;;;13.19;65.92;100985.38;5076403;28;45444;-79
2021/10/28 02:39:31;;;;;;;;;13.00;12.75;;;;;13.28;65.73;100997.81;5058038;28;47069;-80
2021/10/28 02:41:57;;;;;;;;;12.25;12.00;;;;;13.34;65.57;101007.03;5076814;28;45586;-79
2021/10/28 02:44:22;;;;;;;;;14.25;13.00;;;;;13.29;65.56;101012.66;5075179;28;45941;-79
2021/10/28 02:50:09;;;;;;;;;15.00;12.00;;;;;13.14;65.83;100984.03;5076452;28;45756;-81
2021/10/28 02:52:35;;;;;;;;;11.50;10.75;;;;;13.29;65.54;101011.81;5058617;28;45591;-80
2021/10/28 02:55:03;;;;;;;;;14.75;11.25;;;;;12.90;65.69;100944.63;5058984;28;45557;-79
2021/10/28 02:57:29;;;;;;;;;15.00;14.75;;;;;13.27;66.17;101008.50;5058324;28;47574;-79
2021/10/28 03:00:10;;;;;;;;;16.75;14.50;;;;;13.17;65.81;101004.88;5059520;28;46753;-81
2021/10/28 03:02:36;;;;;;;;;13.75;13.75;;;;;13.21;66.32;101015.06;5078240;28;45581;-80
2021/10/28 03:05:04;;;;;;;;;19.75;17.00;;;;;13.16;65.88;101000.56;5059235;28;45669;-81
2021/10/28 03:07:38;;;;;;;;;20.00;18.75;;;;;12.84;65.83;100961.72;5059095;28;47542;-79
2021/10/28 03:10:07;;;;;;;;;16.25;16.00;;;;;13.06;65.88;100981.97;5065071;28;46072;-81
2021/10/28 03:12:36;;;;;;;;;18.25;17.75;;;;;13.11;66.03;100992.16;5082952;28;45535;-79
2021/10/28 03:15:04;;;;;;;;;17.75;14.25;;;;;13.01;66.06;100981.47;5082015;28;45953;-79
2021/10/28 03:25:49;;;;;;;;;17.00;14.25;;;;;13.00;66.02;100992.97;5075593;28;45559;-80
2021/10/28 03:28:17;;;;;;;;;16.00;14.75;;;;;12.98;66.07;100992.22;5075329;28;46510;-80
2021/10/28 03:30:43;;;;;;;;;17.00;17.00;;;;;12.70;66.30;100947.91;5075544;28;46179;-78
2021/10/28 03:33:10;;;;;;;;;17.50;16.25;;;;;12.83;66.13;100967.06;5073440;28;45748;-80
2021/10/28 03:35:40;;;;;;;;;12.75;11.25;;;;;12.73;66.31;100956.41;5075613;28;45503;-80
2021/10/28 03:38:27;;;;;;;;;17.50;16.50;;;;;12.68;66.20;100948.03;5075263;28;45698;-80
2021/10/28 03:44:02;;;;;;;;;18.25;18.00;;;;;12.70;66.66;100950.53;5075354;28;45906;-79
2021/10/28 04:18:44;;;;;;;;;18.25;17.00;;;;;12.57;66.35;100938.31;5074727;28;45740;-79
2021/10/28 04:21:22;;;;;;;;;19.00;17.75;;;;;12.63;66.68;100956.22;5074861;28;45718;-80
2021/10/28 04:29:16;;;;;;;;;18.50;17.50;;;;;12.59;66.43;100953.94;5074712;28;45526;-79
2021/10/28 04:35:03;;;;;;;;;18.50;17.00;;;;;12.40;66.58;100930.00;5077454;28;45792;-80
2021/10/28 04:37:30;;;;;;;;;20.50;19.75;;;;;12.42;66.64;100942.06;5077360;28;45640;-78
2021/10/28 04:39:56;;;;;;;;;18.00;17.00;;;;;12.24;66.52;100906.63;5077200;28;45503;-80
2021/10/28 04:42:21;;;;;;;;;31.50;26.75;;;;;12.50;66.82;100952.84;5075315;28;46412;-78
2021/10/28 04:44:47;;;;;;;;;19.50;18.00;;;;;12.48;66.54;100954.75;5074806;28;45690;-79
2021/10/28 04:50:34;;;;;;;;;22.00;19.75;;;;;12.24;66.83;100930.28;5074337;28;45697;-78
2021/10/28 04:53:05;;;;;;;;;22.00;20.25;;;;;12.39;66.79;100949.31;5074155;28;45661;-80
2021/10/28 04:55:30;;;;;;;;;25.00;25.00;;;;;12.33;66.76;100941.88;5055774;28;46771;-80
2021/10/28 04:57:56;;;;;;;;;23.25;20.50;;;;;12.14;66.96;100918.75;5074286;28;45628;-79
2021/10/28 05:00:21;;;;;;;;;22.75;19.75;;;;;12.17;66.98;100923.78;5074678;28;45682;-80
2021/10/28 05:06:08;;;;;;;;;22.50;19.00;;;;;12.09;66.56;100908.56;5073578;27;45836;-80
2021/10/28 05:08:34;;;;;;;;;23.75;18.25;;;;;12.21;66.94;100941.00;5074091;28;45584;-79
2021/10/28 05:11:00;;;;;;;;;21.00;19.00;;;;;12.02;66.90;100911.78;5074349;28;45683;-79
2021/10/28 05:13:26;;;;;;;;;24.25;23.00;;;;;12.23;66.93;100948.78;5074126;28;46525;-78
2021/10/28 05:15:52;;;;;;;;;24.50;22.00;;;;;11.79;66.71;100884.53;5073956;28;46147;-79
2021/10/28 05:18:22;;;;;;;;;21.25;19.25;;;;;11.98;66.82;100916.41;5074282;28;45945;-79
2021/10/28 05:20:48;;;;;;;;;20.25;17.75;;;;;11.73;67.12;100872.69;5073864;28;45494;-80
2021/10/28 05:23:13;;;;;;;;;21.25;19.25;;;;;12.15;66.89;100938.81;5074379;28;46284;-78
2021/10/28 05:25:39;;;;;;;;;18.75;17.00;;;;;12.14;66.79;100945.03;5074104;28;46778;-79
2021/10/28 05:28:05;;;;;;;;;21.50;19.25;;;;;12.13;66.97;100949.44;5074444;28;45683;-79
2021/10/28 05:30:30;;;;;;;;;24.75;20.50;;;;;11.95;67.11;100929.75;5074084;28;45655;-79
2021/10/28 05:36:18;;;;;;;;;22.75;19.25;;;;;12.04;67.30;100951.88;5075064;28;45735;-80
2021/10/28 05:38:43;;;;;;;;;23.50;21.50;;;;;11.99;67.12;100943.47;5077911;28;45712;-80
2021/10/28 05:41:09;;;;;;;;;22.50;19.75;;;;;11.89;67.19;100934.59;5077960;28;45495;-78
2021/10/28 05:43:35;;;;;;;;;19.00;15.25;;;;;11.92;67.33;100940.47;5077933;28;46372;-78
2021/10/28 05:46:01;;;;;;;;;18.25;17.25;;;;;12.01;67.33;100959.97;5078680;28;45927;-79
2021/10/28 05:48:26;;;;;;;;;17.50;16.50;;;;;11.99;67.09;100961.84;5084597;28;45585;-80
2021/10/28 05:50:51;;;;;;;;;23.50;20.00;;;;;11.86;67.02;100933.03;5084744;28;45658;-79
2021/10/28 05:53:18;;;;;;;;;21.00;20.00;;;;;11.67;67.33;100894.09;5083321;28;46622;-81
2021/10/28 05:55:44;;;;;;;;;20.50;18.00;;;;;11.85;67.44;100933.13;5062804;28;47621;-80
2021/10/28 05:58:09;;;;;;;;;21.50;18.75;;;;;11.92;67.27;100940.47;5081974;28;45526;-80
2021/10/28 06:00:38;;;;;;;;;22.25;19.25;;;;;11.73;67.53;100914.69;5081865;28;45502;-81
2021/10/28 06:06:25;;;;;;;;;21.25;17.25;;;;;11.62;67.38;100909.31;5079696;27;45785;-79
2021/10/28 06:08:51;;;;;;;;;19.25;18.50;;;;;11.74;67.44;100926.03;5079902;28;45621;-78
2021/10/28 06:11:18;;;;;;;;;23.50;21.25;;;;;11.78;67.47;100944.06;5079437;28;45455;-80
2021/10/28 06:13:48;;;;;;;;;22.75;22.00;;;;;11.51;67.48;100901.38;5059511;28;48463;-77
2021/10/28 06:16:13;;;;;;;;;24.75;21.50;;;;;11.56;67.46;100907.13;5077096;28;46185;-79
2021/10/28 06:18:43;;;;;;;;;21.75;17.25;;;;;11.51;67.72;100901.38;5078013;28;45609;-83
2021/10/28 06:21:13;;;;;;;;;23.50;20.25;;;;;11.22;67.59;100861.44;5059366;28;45571;-80
2021/10/28 06:23:39;;;;;;;;;22.75;21.00;;;;;11.18;67.57;100853.88;5058628;28;48039;-80
2021/10/28 06:26:05;;;;;;;;;20.75;19.75;;;;;11.73;67.89;100943.56;5076918;28;46166;-78
2021/10/28 06:28:31;;;;;;;;;23.50;22.25;;;;;11.63;67.68;100925.91;5076414;28;45541;-79
2021/10/28 06:30:57;;;;;;;;;25.00;23.00;;;;;11.72;67.68;100947.09;5076611;28;45622;-76
2021/10/28 06:36:49;;;;;;;;;22.50;21.25;;;;;11.67;67.75;100945.72;5075969;28;46042;-77
2021/10/28 06:39:16;;;;;;;;;28.50;23.75;;;;;11.67;67.77;100954.44;5076582;28;45617;-79
2021/10/28 06:41:45;;;;;;;;;29.00;24.00;;;;;11.62;67.83;100951.31;5076655;28;45717;-80
2021/10/28 06:44:11;;;;;;;;;25.75;20.50;;;;;11.63;67.63;100949.53;5076346;28;46607;-79
2021/10/28 06:46:37;;;;;;;;;26.25;23.00;;;;;11.64;67.68;100956.47;5058289;28;46109;-81
2021/10/28 06:49:06;;;;;;;;;24.00;23.25;;;;;11.59;67.83;100958.56;5075197;28;45527;-78
2021/10/28 06:51:36;;;;;;;;;26.25;21.50;;;;;11.47;67.74;100936.63;5076532;28;45605;-80
2021/10/28 06:54:07;;;;;;;;;27.25;23.50;;;;;11.51;67.80;100938.09;5076516;28;45581;-78
2021/10/28 07:04:27;;;;;;;;;21.00;20.00;;;;;11.57;67.86;100957.81;5076516;28;46074;-78
2021/10/28 07:06:53;;;;;;;;;28.00;25.50;;;;;11.52;67.94;100952.91;5076381;28;46071;-81
2021/10/28 07:09:29;;;;;;;;;26.75;21.75;;;;;11.57;67.77;100952.56;5076200;28;45805;-79
2021/10/28 07:12:08;;;;;;;;;24.00;22.50;;;;;11.54;67.69;100948.41;5076402;28;45846;-77
2021/10/28 07:14:33;;;;;;;;;36.75;31.00;;;;;11.57;67.64;100953.41;5077088;28;46269;-80
2021/10/28 07:24:54;;;;;;;;;26.25;22.00;;;;;11.55;67.77;100944.78;5076495;28;46545;-77
2021/10/28 07:27:57;;;;;;;;;29.50;26.75;;;;;11.58;67.75;100955.09;5077007;28;46326;-79
2021/10/28 08:06:09;;;;;;;;;24.00;22.00;;;;;11.56;67.97;100959.59;5036755;28;45532;-81
2021/10/28 08:14:21;;;;;;;;;23.75;20.25;;;;;11.59;68.02;100950.69;5049830;28;45536;-78
2021/10/28 08:22:06;;;;;;;;;24.50;18.00;;;;;11.62;67.80;100939.97;5049173;28;45741;-77
2021/10/28 08:28:39;;;;;;;;;19.25;18.50;;;;;11.60;67.74;100942.72;5042854;28;45631;-78
2021/10/28 08:30:00;;;;;;;;;23.50;21.00;;;;;11.63;67.80;100939.88;5043835;28;45587;-78
2021/10/28 08:32:26;;;;;;;;;23.00;20.50;;;;;11.55;67.70;100921.19;5045805;28;45456;-78
2021/10/28 08:34:53;;;;;;;;;22.50;20.25;;;;;11.67;67.85;100938.69;5047530;28;45393;-77
2021/10/28 08:37:20;;;;;;;;;23.25;19.00;;;;;11.69;67.98;100934.19;5086795;28;45011;-78
2021/10/28 08:39:48;;;;;;;;;21.75;18.50;;;;;11.73;67.60;100937.47;5075813;28;45715;-80
2021/10/28 08:42:16;;;;;;;;;18.00;18.00;;;;;11.79;67.55;100934.41;5076633;28;46267;-78
2021/10/28 08:44:45;;;;;;;;;19.25;17.50;;;;;11.83;67.65;100929.78;5080061;28;45850;-80
2021/10/28 08:47:11;;;;;;;;;21.50;20.25;;;;;11.85;67.55;100935.75;5081468;28;45572;-80
2021/10/28 08:49:54;;;;;;;;;19.75;18.75;;;;;11.87;67.58;100928.63;5080683;28;45623;-79
2021/10/28 08:55:18;;;;;;;;;25.50;21.75;;;;;11.84;67.69;100908.66;5080680;28;45706;-77
2021/10/28 09:23:58;;;;;;;;;19.75;18.25;;;;;12.19;67.44;100885.13;5077914;28;45629;-79
2021/10/28 09:44:04;;;;;;;;;21.25;18.75;;;;;12.54;67.31;100866.72;5077186;28;45606;-76
2021/10/28 09:46:37;;;;;;;;;22.75;21.00;;;;;12.57;67.16;100864.72;5077328;28;46465;-81
2021/10/28 09:57:50;;;;;;;;;21.75;21.75;;;;;12.78;66.93;100864.88;5076899;28;46317;-78
2021/10/28 10:00:17;;;;;;;;;23.75;21.50;;;;;12.81;66.94;100859.38;5076741;28;45625;-78
2021/10/28 10:06:07;;;;;;;;;21.75;19.25;;;;;12.92;67.25;100859.41;5077022;28;45608;-79
2021/10/28 10:08:34;;;;;;;;;24.25;21.50;;;;;12.98;66.98;100855.47;5056609;28;46651;-76
2021/10/28 10:11:02;;;;;;;;;20.75;19.75;;;;;13.01;67.18;100849.94;5056210;28;46222;-79
2021/10/28 10:13:29;;;;;;;;;19.25;17.25;;;;;12.89;66.90;100814.94;5056743;28;45987;-80
2021/10/28 10:16:03;;;;;;;;;21.25;18.25;;;;;13.13;66.97;100848.19;5057026;28;45528;-80
2021/10/28 10:21:52;;;;;;;;;22.50;19.25;;;;;13.22;66.98;100832.56;5056317;28;45771;-78
2021/10/28 10:24:46;;;;;;;;;21.50;19.75;;;;;13.25;67.00;100827.03;5057467;28;45602;-77
2021/10/28 11:26:12;;;;;;;;;14.75;14.00;;;;;14.58;66.32;100751.94;4994233;28;45866;-79
2021/10/28 11:31:38;;;;;;;;;17.25;15.50;;;;;14.74;65.84;100740.91;4954122;28;46177;-77
2021/10/28 12:45:09;;;;;;;;;7.00;7.00;;;;;16.60;63.16;100601.44;4895638;29;45574;-76
2021/10/28 12:53:24;;;;;;;;;10.00;8.25;;;;;16.81;62.68;100595.88;4972479;28;45986;-76
2021/10/28 12:56:19;;;;;;;;;10.00;8.50;;;;;16.87;62.31;100571.44;5021560;28;45618;-74
2021/10/28 13:36:06;;;;;;;;;10.25;9.75;;;;;17.65;60.21;100500.09;4991382;28;46308;-79
2021/10/28 13:55:53;;;;;;;;;7.75;7.75;;;;;17.99;58.78;100491.16;4991550;28;45880;-75
2021/10/28 16:24:44;;;;;;;;;7.00;6.75;;;;;20.87;49.59;100329.59;5079022;28;45662;-80
2021/10/28 16:27:11;;;;;;;;;7.50;6.25;;;;;20.88;49.81;100344.56;5075226;28;45502;-79
2021/10/28 16:29:36;;;;;;;;;6.25;6.00;;;;;20.62;50.23;100333.50;5075132;28;45519;-76
2021/10/28 16:32:02;;;;;;;;;7.00;6.75;;;;;20.51;49.77;100332.91;5075078;28;46472;-79
2021/10/28 16:34:28;;;;;;;;;8.00;7.00;;;;;20.32;50.17;100328.09;5074747;28;46036;-79
2021/10/28 16:36:54;;;;;;;;;7.00;7.00;;;;;20.35;50.19;100345.56;5074653;28;45698;-78
2021/10/28 16:39:21;;;;;;;;;7.00;6.00;;;;;20.22;50.36;100351.44;5075147;28;45792;-78
2021/10/28 16:41:51;;;;;;;;;6.50;6.00;;;;;20.07;50.15;100340.72;5056733;28;45498;-77
2021/10/28 16:44:17;;;;;;;;;8.25;7.00;;;;;19.65;50.36;100290.63;5074758;28;46346;-78
2021/10/28 16:46:44;;;;;;;;;9.75;9.25;;;;;19.67;50.43;100306.41;5074754;28;45712;-78
2021/10/28 16:55:16;;;;;;;;;8.25;7.25;;;;;19.51;50.71;100344.53;5074446;28;45831;-77
2021/10/28 16:57:44;;;;;;;;;8.00;7.50;;;;;19.35;51.11;100322.47;5074525;28;45968;-80
2021/10/28 17:00:10;;;;;;;;;9.00;7.50;;;;;19.17;50.73;100307.59;5074551;28;45482;-79
2021/10/28 17:02:35;;;;;;;;;10.00;8.75;;;;;19.32;50.89;100344.94;5074390;28;46758;-79
2021/10/28 17:05:01;;;;;;;;;10.00;9.00;;;;;19.23;51.02;100343.28;5074163;28;45684;-79
2021/10/28 17:07:26;;;;;;;;;8.25;8.25;;;;;19.09;50.87;100336.03;5056092;28;46073;-78
2021/10/28 17:09:52;;;;;;;;;9.00;8.75;;;;;19.08;51.03;100347.66;5074156;28;45684;-78
2021/10/28 17:12:19;;;;;;;;;9.00;8.25;;;;;19.02;51.25;100349.16;5074395;28;45667;-81
2021/10/28 17:14:44;;;;;;;;;10.50;9.50;;;;;18.96;51.10;100347.16;5074159;28;46174;-79
2021/10/28 17:17:10;;;;;;;;;9.25;8.25;;;;;18.89;51.29;100354.19;5074353;28;45640;-79
2021/10/28 17:19:36;;;;;;;;;11.00;10.00;;;;;18.82;51.52;100347.88;5074335;28;45642;-80
2021/10/28 17:22:01;;;;;;;;;9.25;9.00;;;;;18.59;51.37;100315.88;5055677;28;46371;-78
2021/10/28 17:24:36;;;;;;;;;11.50;10.75;;;;;18.69;51.66;100348.38;5074059;28;46126;-79
2021/10/28 17:27:02;;;;;;;;;10.75;10.75;;;;;18.63;51.42;100346.38;5072496;28;45666;-78
2021/10/28 17:29:28;;;;;;;;;10.25;10.25;;;;;18.57;51.83;100347.06;5074168;28;45528;-80
2021/10/28 17:31:56;;;;;;;;;10.00;8.00;;;;;18.45;51.59;100329.81;5074613;28;46278;-80
2021/10/28 17:34:23;;;;;;;;;9.25;9.00;;;;;18.36;52.03;100326.31;5077658;28;46267;-81
2021/10/28 17:40:11;;;;;;;;;11.00;10.00;;;;;18.19;51.69;100318.53;5077581;28;45656;-78
2021/10/28 17:42:38;;;;;;;;;12.75;10.75;;;;;18.13;52.26;100320.03;5077592;28;45688;-80
2021/10/28 17:45:05;;;;;;;;;11.50;10.00;;;;;18.23;52.22;100343.72;5077356;28;46131;-79
2021/10/28 17:47:31;;;;;;;;;9.00;8.00;;;;;18.01;52.17;100305.41;5077282;28;45662;-80
2021/10/28 17:49:57;;;;;;;;;12.00;10.25;;;;;18.18;52.47;100338.91;5077695;28;45859;-81
2021/10/28 17:52:23;;;;;;;;;11.50;9.75;;;;;17.91;52.21;100299.44;5077391;28;45631;-81
2021/10/28 17:54:48;;;;;;;;;10.00;10.00;;;;;18.11;52.21;100348.50;5076922;28;46079;-79
2021/10/28 17:57:14;;;;;;;;;11.25;10.25;;;;;17.93;52.15;100322.13;5077201;28;45458;-79
2021/10/28 17:59:42;;;;;;;;;14.25;12.00;;;;;17.81;52.24;100302.25;5077345;28;45451;-79
2021/10/28 18:02:07;;;;;;;;;13.00;11.50;;;;;17.77;53.28;100303.53;5077350;28;46424;-80
2021/10/28 18:04:33;;;;;;;;;13.00;12.00;;;;;17.86;52.94;100326.44;5058847;28;46731;-76
2021/10/28 18:10:23;;;;;;;;;9.50;9.00;;;;;17.85;52.64;100335.38;5078221;28;45786;-80
2021/10/28 18:12:49;;;;;;;;;12.75;12.75;;;;;17.81;52.73;100336.72;5081666;28;45640;-79
2021/10/28 18:15:14;;;;;;;;;15.00;11.75;;;;;17.78;53.10;100331.72;5082326;28;45669;-81
2021/10/28 18:17:40;;;;;;;;;13.25;13.00;;;;;17.49;52.96;100295.00;5081484;28;45637;-81
2021/10/28 18:20:06;;;;;;;;;16.00;13.00;;;;;17.23;53.24;100251.88;5080779;28;45686;-80
2021/10/28 18:22:37;;;;;;;;;13.00;12.75;;;;;17.38;53.08;100282.03;5078468;28;46322;-81
2021/10/28 18:25:06;;;;;;;;;17.50;15.00;;;;;17.66;53.33;100334.81;5077034;28;45981;-80
2021/10/28 18:27:32;;;;;;;;;15.00;11.50;;;;;17.52;53.18;100318.53;5080520;28;45629;-80
2021/10/28 18:29:58;;;;;;;;;12.75;12.00;;;;;17.49;53.49;100318.84;5062228;28;45482;-80
2021/10/28 18:32:23;;;;;;;;;14.00;12.00;;;;;17.50;53.46;100322.31;5079014;28;45521;-80
2021/10/28 18:34:49;;;;;;;;;10.75;10.50;;;;;17.26;53.29;100291.28;5076672;28;46250;-81
2021/10/28 18:37:15;;;;;;;;;15.00;13.75;;;;;17.32;53.53;100295.13;5058484;28;45687;-79
2021/10/28 18:39:41;;;;;;;;;14.00;13.00;;;;;17.46;53.86;100318.34;5077215;28;45728;-80
2021/10/28 18:42:07;;;;;;;;;12.00;12.00;;;;;17.43;53.85;100323.97;5077164;28;46460;-80
2021/10/28 18:44:32;;;;;;;;;13.75;12.25;;;;;17.32;53.78;100301.25;5076313;28;46638;-77
2021/10/28 18:46:58;;;;;;;;;11.00;11.00;;;;;17.37;53.59;100312.19;5075977;28;45701;-78
2021/10/28 18:49:24;;;;;;;;;12.00;10.25;;;;;17.29;53.97;100304.19;5076416;28;45914;-79
2021/10/28 18:55:12;;;;;;;;;15.00;13.00;;;;;17.03;54.13;100269.84;5075480;28;45861;-79
2021/10/28 18:57:37;;;;;;;;;11.25;10.00;;;;;17.25;53.64;100305.53;5075817;28;45763;-79
2021/10/28 19:00:07;;;;;;;;;14.50;12.75;;;;;17.08;54.09;100274.66;5076287;28;45566;-79
2021/10/28 19:02:35;;;;;;;;;11.25;11.00;;;;;17.22;54.31;100305.03;5075882;28;48536;-79
2021/10/28 19:05:02;;;;;;;;;11.50;11.00;;;;;17.12;54.41;100289.22;5075624;28;46065;-79
2021/10/28 19:07:29;;;;;;;;;13.25;13.00;;;;;17.12;54.12;100283.94;5075800;28;45662;-77
2021/10/28 19:09:55;;;;;;;;;12.25;11.75;;;;;17.11;54.45;100287.59;5076415;28;45715;-79
2021/10/28 19:12:20;;;;;;;;;11.75;11.75;;;;;17.13;54.19;100293.53;5077340;28;45651;-79
2021/10/28 19:14:45;;;;;;;;;15.50;13.00;;;;;17.10;54.22;100289.41;5076642;28;45604;-80
2021/10/28 19:17:11;;;;;;;;;12.25;11.50;;;;;17.08;54.12;100285.25;5076147;28;45570;-80
2021/10/28 19:19:38;;;;;;;;;14.00;13.00;;;;;16.81;54.35;100241.28;5076384;28;45862;-80
2021/10/28 19:25:26;;;;;;;;;13.00;11.00;;;;;16.60;54.49;100215.22;5074754;28;46134;-80
2021/10/28 19:27:54;;;;;;;;;18.50;17.75;;;;;16.82;54.55;100258.00;5075460;28;45771;-79
2021/10/28 19:30:29;;;;;;;;;15.25;14.00;;;;;16.77;54.86;100239.97;5076004;28;45725;-80
2021/10/28 19:32:59;;;;;;;;;11.75;10.75;;;;;16.65;54.84;100231.47;5075674;28;45601;-79
2021/10/28 19:35:28;;;;;;;;;19.00;17.50;;;;;16.90;55.17;100269.44;5056589;28;47668;-78
2021/10/28 19:38:09;;;;;;;;;17.25;16.00;;;;;16.58;55.15;100218.97;5075295;28;45553;-78
2021/10/28 19:46:11;;;;;;;;;25.00;21.75;;;;;16.64;55.02;100228.97;5075193;28;45751;-79
2021/10/28 19:48:38;;;;;;;;;21.75;18.50;;;;;16.63;55.21;100228.13;5075636;28;45782;-78
2021/10/28 19:51:03;;;;;;;;;18.75;15.25;;;;;16.53;55.12;100216.81;5075527;28;45748;-79
2021/10/28 19:53:29;;;;;;;;;16.00;15.00;;;;;16.65;55.29;100228.81;5075582;28;45809;-79
2021/10/28 19:56:07;;;;;;;;;16.00;15.75;;;;;16.72;54.99;100251.00;5074359;28;46372;-78
2021/10/28 19:58:38;;;;;;;;;16.00;14.00;;;;;16.54;55.37;100218.47;5074628;28;45741;-79
2021/10/28 20:01:41;;;;;;;;;19.00;17.00;;;;;16.69;55.55;100253.13;5075116;28;45618;-78
2021/10/28 20:20:20;;;;;;;;;17.00;16.25;;;;;16.52;55.61;100248.72;5017092;28;45716;-78
2021/10/28 20:22:47;;;;;;;;;16.50;16.00;;;;;16.30;55.88;100215.69;5017632;28;45527;-78
2021/10/28 20:25:19;;;;;;;;;14.75;14.00;;;;;16.48;55.95;100236.78;5018936;28;45705;-77
2021/10/28 20:27:48;;;;;;;;;13.75;12.00;;;;;16.46;55.81;100238.75;5019574;28;46152;-80
2021/10/28 20:30:16;;;;;;;;;13.25;13.25;;;;;16.44;56.11;100235.44;5003356;28;45721;-78
2021/10/28 20:32:41;;;;;;;;;15.25;14.50;;;;;16.19;55.98;100197.44;5019069;28;45682;-77
2021/10/28 20:35:29;;;;;;;;;14.00;12.25;;;;;16.40;56.15;100240.22;5018561;28;46399;-77
2021/10/28 20:37:56;;;;;;;;;18.75;17.00;;;;;16.38;55.97;100231.59;5011394;28;46472;-79
2021/10/28 20:40:22;;;;;;;;;15.00;14.25;;;;;16.25;56.08;100216.13;5020839;28;45747;-78
2021/10/28 20:42:49;;;;;;;;;18.50;15.75;;;;;16.33;56.18;100242.63;5015423;28;45748;-77
2021/10/28 20:45:24;;;;;;;;;16.25;14.75;;;;;16.20;56.25;100214.94;5012762;28;45672;-77
2021/10/28 20:47:52;;;;;;;;;13.25;13.25;;;;;16.26;56.68;100232.81;5016048;28;46592;-78
2021/10/28 20:50:23;;;;;;;;;13.75;13.00;;;;;16.13;56.46;100200.69;5032373;28;45277;-77
2021/10/28 20:52:49;;;;;;;;;13.25;13.00;;;;;16.27;56.48;100227.38;5020568;28;45566;-78
2021/10/28 20:55:15;;;;;;;;;14.00;14.00;;;;;16.16;56.43;100208.31;5064729;28;45571;-77
2021/10/28 20:57:42;;;;;;;;;14.00;12.75;;;;;15.99;56.64;100191.50;5074079;28;46284;-78
2021/10/28 21:00:10;;;;;;;;;15.00;14.00;;;;;16.22;56.53;100232.31;5074595;28;45725;-77
2021/10/28 21:02:37;;;;;;;;;14.25;13.75;;;;;16.20;56.73;100233.44;5074598;28;45731;-79
2021/10/28 21:05:10;;;;;;;;;17.00;15.00;;;;;15.81;56.63;100169.56;5055610;28;48025;-78
2021/10/28 21:07:43;;;;;;;;;17.75;13.25;;;;;15.78;56.68;100181.25;5076010;28;45913;-77
2021/10/28 21:10:12;;;;;;;;;12.50;12.25;;;;;15.95;56.59;100206.84;5077854;28;45636;-78
2021/10/28 21:12:39;;;;;;;;;11.25;11.00;;;;;15.90;56.64;100197.72;5078164;28;45665;-78
2021/10/28 21:15:05;;;;;;;;;17.00;15.00;;;;;15.72;56.70;100173.13;5059249;28;48384;-77
2021/10/28 21:17:31;;;;;;;;;16.75;15.25;;;;;16.11;57.03;100234.38;5077837;28;45723;-79
2021/10/28 21:19:57;;;;;;;;;13.00;13.00;;;;;15.86;56.85;100197.19;5077808;28;45540;-79
2021/10/28 21:22:22;;;;;;;;;17.00;15.00;;;;;15.99;57.15;100222.38;5077654;28;45592;-78
2021/10/28 21:24:50;;;;;;;;;15.00;12.75;;;;;16.07;57.32;100241.78;5077466;28;45744;-81
2021/10/28 21:27:16;;;;;;;;;13.00;11.75;;;;;15.77;57.11;100198.09;5077505;28;46077;-81
2021/10/28 21:29:42;;;;;;;;;15.25;14.25;;;;;15.83;57.08;100200.13;5077638;28;45729;-80
2021/10/28 21:32:10;;;;;;;;;18.00;15.00;;;;;15.89;57.25;100207.44;5077656;28;45616;-82